sensor_id;sensor_type;location;lat;lon;timestamp;P1;durP1;ratioP1;P2;durP2;ratioP2
68803;SDS011;55787;52.678;13.314;2023-07-31T00:00:13;7.53;;;1.63;;
68803;SDS011;55787;52.678;13.314;2023-07-31T00:02:41;7.57;;;1.40;;
68803;SDS011;55787;52.678;13.314;2023-07-31T00:05:08;7.93;;;1.27;;
68803;SDS011;55787;52.678;13.314;2023-07-31T00:07:35;6.73;;;1.33;;
68803;SDS011;55787;52.678;13.314;2023-07-31T00:10:02;5.40;;;1.27;;
68803;SDS011;55787;52.678;13.314;2023-07-31T00:12:28;5.95;;;1.48;;
68803;SDS011;55787;52.678;13.314;2023-07-31T00:14:55;6.38;;;1.38;;
68803;SDS011;55787;52.678;13.314;2023-07-31T00:17:22;6.82;;;1.15;;
68803;SDS011;55787;52.678;13.314;2023-07-31T00:19:49;8.93;;;1.60;;
68803;SDS011;55787;52.678;13.314;2023-07-31T00:22:17;8.77;;;1.40;;
68803;SDS011;55787;52.678;13.314;2023-07-31T00:24:43;6.78;;;1.63;;
68803;SDS011;55787;52.678;13.314;2023-07-31T00:27:10;6.25;;;1.40;;
68803;SDS011;55787;52.678;13.314;2023-07-31T00:29:36;7.35;;;1.55;;
68803;SDS011;55787;52.678;13.314;2023-07-31T00:32:03;6.90;;;1.87;;
68803;SDS011;55787;52.678;13.314;2023-07-31T00:34:30;7.28;;;1.60;;
68803;SDS011;55787;52.678;13.314;2023-07-31T00:36:57;5.85;;;1.33;;
68803;SDS011;55787;52.678;13.314;2023-07-31T00:39:24;7.13;;;1.58;;
68803;SDS011;55787;52.678;13.314;2023-07-31T00:41:50;7.63;;;1.60;;
68803;SDS011;55787;52.678;13.314;2023-07-31T00:44:17;6.93;;;1.50;;
68803;SDS011;55787;52.678;13.314;2023-07-31T00:46:44;8.48;;;1.60;;
68803;SDS011;55787;52.678;13.314;2023-07-31T00:49:10;6.03;;;1.42;;
68803;SDS011;55787;52.678;13.314;2023-07-31T00:51:38;6.75;;;1.58;;
68803;SDS011;55787;52.678;13.314;2023-07-31T00:54:05;6.05;;;1.42;;
68803;SDS011;55787;52.678;13.314;2023-07-31T00:56:32;8.53;;;1.73;;
68803;SDS011;55787;52.678;13.314;2023-07-31T00:58:59;8.02;;;1.60;;
68803;SDS011;55787;52.678;13.314;2023-07-31T01:01:27;7.88;;;1.50;;
68803;SDS011;55787;52.678;13.314;2023-07-31T01:03:54;8.77;;;1.40;;
68803;SDS011;55787;52.678;13.314;2023-07-31T01:06:31;8.88;;;1.50;;
68803;SDS011;55787;52.678;13.314;2023-07-31T01:09:04;8.00;;;1.60;;
68803;SDS011;55787;52.678;13.314;2023-07-31T01:11:57;6.45;;;1.27;;
68803;SDS011;55787;52.678;13.314;2023-07-31T01:14:29;5.55;;;1.20;;
68803;SDS011;55787;52.678;13.314;2023-07-31T01:16:55;6.80;;;1.48;;
68803;SDS011;55787;52.678;13.314;2023-07-31T01:19:23;7.18;;;1.50;;
68803;SDS011;55787;52.678;13.314;2023-07-31T01:27:30;7.30;;;1.50;;
68803;SDS011;55787;52.678;13.314;2023-07-31T01:30:05;8.00;;;1.70;;
68803;SDS011;55787;52.678;13.314;2023-07-31T01:32:40;6.38;;;1.45;;
68803;SDS011;55787;52.678;13.314;2023-07-31T01:35:09;8.10;;;1.40;;
68803;SDS011;55787;52.678;13.314;2023-07-31T01:37:37;10.77;;;1.45;;
68803;SDS011;55787;52.678;13.314;2023-07-31T01:40:05;6.93;;;1.45;;
68803;SDS011;55787;52.678;13.314;2023-07-31T01:42:33;7.43;;;1.10;;
68803;SDS011;55787;52.678;13.314;2023-07-31T01:45:00;6.30;;;1.40;;
68803;SDS011;55787;52.678;13.314;2023-07-31T01:47:26;5.70;;;1.40;;
68803;SDS011;55787;52.678;13.314;2023-07-31T01:49:53;7.32;;;1.50;;
68803;SDS011;55787;52.678;13.314;2023-07-31T01:52:19;7.57;;;1.50;;
68803;SDS011;55787;52.678;13.314;2023-07-31T01:54:46;6.10;;;1.20;;
68803;SDS011;55787;52.678;13.314;2023-07-31T01:57:13;6.93;;;1.15;;
68803;SDS011;55787;52.678;13.314;2023-07-31T01:59:39;8.07;;;1.67;;
68803;SDS011;55787;52.678;13.314;2023-07-31T02:02:06;6.13;;;1.30;;
68803;SDS011;55787;52.678;13.314;2023-07-31T02:04:33;5.97;;;1.42;;
68803;SDS011;55787;52.678;13.314;2023-07-31T02:07:00;7.15;;;1.50;;
68803;SDS011;55787;52.678;13.314;2023-07-31T02:09:27;6.85;;;1.60;;
68803;SDS011;55787;52.678;13.314;2023-07-31T02:11:53;5.73;;;1.30;;
68803;SDS011;55787;52.678;13.314;2023-07-31T02:14:20;7.22;;;1.48;;
68803;SDS011;55787;52.678;13.314;2023-07-31T02:16:47;6.35;;;1.80;;
68803;SDS011;55787;52.678;13.314;2023-07-31T02:19:17;7.75;;;1.63;;
68803;SDS011;55787;52.678;13.314;2023-07-31T02:21:44;8.98;;;1.90;;
68803;SDS011;55787;52.678;13.314;2023-07-31T02:24:10;9.83;;;1.90;;
68803;SDS011;55787;52.678;13.314;2023-07-31T02:26:40;7.10;;;2.10;;
68803;SDS011;55787;52.678;13.314;2023-07-31T02:29:09;6.25;;;1.60;;
68803;SDS011;55787;52.678;13.314;2023-07-31T02:31:36;8.35;;;1.65;;
68803;SDS011;55787;52.678;13.314;2023-07-31T02:34:02;7.35;;;1.80;;
68803;SDS011;55787;52.678;13.314;2023-07-31T02:36:29;6.03;;;1.70;;
68803;SDS011;55787;52.678;13.314;2023-07-31T02:38:56;8.73;;;1.92;;
68803;SDS011;55787;52.678;13.314;2023-07-31T02:41:23;8.57;;;1.92;;
68803;SDS011;55787;52.678;13.314;2023-07-31T02:43:49;7.22;;;1.90;;
68803;SDS011;55787;52.678;13.314;2023-07-31T02:46:16;6.50;;;1.65;;
68803;SDS011;55787;52.678;13.314;2023-07-31T02:48:43;6.20;;;1.50;;
68803;SDS011;55787;52.678;13.314;2023-07-31T02:51:09;9.10;;;1.85;;
68803;SDS011;55787;52.678;13.314;2023-07-31T02:53:36;6.05;;;1.77;;
68803;SDS011;55787;52.678;13.314;2023-07-31T02:56:03;9.10;;;1.73;;
68803;SDS011;55787;52.678;13.314;2023-07-31T02:58:29;8.02;;;1.63;;
68803;SDS011;55787;52.678;13.314;2023-07-31T03:00:57;8.47;;;2.17;;
68803;SDS011;55787;52.678;13.314;2023-07-31T03:03:24;8.23;;;1.73;;
68803;SDS011;55787;52.678;13.314;2023-07-31T03:05:51;6.25;;;1.80;;
68803;SDS011;55787;52.678;13.314;2023-07-31T03:08:19;7.40;;;1.77;;
68803;SDS011;55787;52.678;13.314;2023-07-31T03:10:46;7.30;;;2.05;;
68803;SDS011;55787;52.678;13.314;2023-07-31T03:13:13;6.27;;;1.80;;
68803;SDS011;55787;52.678;13.314;2023-07-31T03:15:41;7.03;;;2.08;;
68803;SDS011;55787;52.678;13.314;2023-07-31T03:18:09;6.47;;;1.92;;
68803;SDS011;55787;52.678;13.314;2023-07-31T03:20:36;6.90;;;1.88;;
68803;SDS011;55787;52.678;13.314;2023-07-31T03:23:03;6.60;;;1.77;;
68803;SDS011;55787;52.678;13.314;2023-07-31T03:25:30;8.37;;;1.90;;
68803;SDS011;55787;52.678;13.314;2023-07-31T03:27:56;7.47;;;1.77;;
68803;SDS011;55787;52.678;13.314;2023-07-31T03:30:23;6.40;;;2.03;;
68803;SDS011;55787;52.678;13.314;2023-07-31T03:32:50;7.07;;;2.00;;
68803;SDS011;55787;52.678;13.314;2023-07-31T03:35:16;6.32;;;1.90;;
68803;SDS011;55787;52.678;13.314;2023-07-31T03:37:43;8.17;;;2.27;;
68803;SDS011;55787;52.678;13.314;2023-07-31T03:40:10;9.25;;;2.17;;
68803;SDS011;55787;52.678;13.314;2023-07-31T03:42:37;8.57;;;2.15;;
68803;SDS011;55787;52.678;13.314;2023-07-31T03:45:04;6.88;;;2.10;;
68803;SDS011;55787;52.678;13.314;2023-07-31T03:47:31;6.90;;;2.00;;
68803;SDS011;55787;52.678;13.314;2023-07-31T03:49:57;8.73;;;2.20;;
68803;SDS011;55787;52.678;13.314;2023-07-31T03:52:24;8.25;;;2.25;;
68803;SDS011;55787;52.678;13.314;2023-07-31T03:54:51;7.60;;;2.30;;
68803;SDS011;55787;52.678;13.314;2023-07-31T03:57:18;7.63;;;2.60;;
68803;SDS011;55787;52.678;13.314;2023-07-31T03:59:44;8.43;;;2.15;;
68803;SDS011;55787;52.678;13.314;2023-07-31T04:02:11;9.27;;;2.50;;
68803;SDS011;55787;52.678;13.314;2023-07-31T04:04:40;8.95;;;2.22;;
68803;SDS011;55787;52.678;13.314;2023-07-31T04:07:07;7.68;;;2.25;;
68803;SDS011;55787;52.678;13.314;2023-07-31T04:09:34;9.68;;;2.28;;
68803;SDS011;55787;52.678;13.314;2023-07-31T04:12:00;7.97;;;2.30;;
68803;SDS011;55787;52.678;13.314;2023-07-31T04:14:28;8.57;;;2.53;;
68803;SDS011;55787;52.678;13.314;2023-07-31T04:16:54;8.07;;;2.60;;
68803;SDS011;55787;52.678;13.314;2023-07-31T04:19:21;9.13;;;2.70;;
68803;SDS011;55787;52.678;13.314;2023-07-31T04:21:48;7.57;;;2.45;;
68803;SDS011;55787;52.678;13.314;2023-07-31T04:24:14;8.52;;;2.50;;
68803;SDS011;55787;52.678;13.314;2023-07-31T04:26:41;9.53;;;2.50;;
68803;SDS011;55787;52.678;13.314;2023-07-31T04:29:08;9.18;;;2.75;;
68803;SDS011;55787;52.678;13.314;2023-07-31T04:31:34;9.48;;;2.78;;
68803;SDS011;55787;52.678;13.314;2023-07-31T04:34:04;7.80;;;2.58;;
68803;SDS011;55787;52.678;13.314;2023-07-31T04:36:31;8.82;;;2.80;;
68803;SDS011;55787;52.678;13.314;2023-07-31T04:38:58;9.20;;;2.70;;
68803;SDS011;55787;52.678;13.314;2023-07-31T04:41:24;9.75;;;2.72;;
68803;SDS011;55787;52.678;13.314;2023-07-31T04:43:51;8.73;;;2.75;;
68803;SDS011;55787;52.678;13.314;2023-07-31T04:46:18;7.43;;;2.42;;
68803;SDS011;55787;52.678;13.314;2023-07-31T04:48:44;9.50;;;2.63;;
68803;SDS011;55787;52.678;13.314;2023-07-31T04:51:11;9.70;;;2.90;;
68803;SDS011;55787;52.678;13.314;2023-07-31T04:53:38;9.73;;;3.17;;
68803;SDS011;55787;52.678;13.314;2023-07-31T04:56:04;10.77;;;3.00;;
68803;SDS011;55787;52.678;13.314;2023-07-31T04:58:31;8.40;;;2.55;;
68803;SDS011;55787;52.678;13.314;2023-07-31T05:00:58;9.10;;;3.28;;
68803;SDS011;55787;52.678;13.314;2023-07-31T05:03:25;9.67;;;3.03;;
68803;SDS011;55787;52.678;13.314;2023-07-31T05:05:52;10.40;;;3.05;;
68803;SDS011;55787;52.678;13.314;2023-07-31T05:08:18;9.18;;;2.83;;
68803;SDS011;55787;52.678;13.314;2023-07-31T05:10:45;8.88;;;2.88;;
68803;SDS011;55787;52.678;13.314;2023-07-31T05:13:12;11.25;;;3.17;;
68803;SDS011;55787;52.678;13.314;2023-07-31T05:15:38;8.57;;;2.93;;
68803;SDS011;55787;52.678;13.314;2023-07-31T05:18:05;9.32;;;3.03;;
68803;SDS011;55787;52.678;13.314;2023-07-31T05:20:32;13.23;;;3.03;;
68803;SDS011;55787;52.678;13.314;2023-07-31T05:22:58;11.00;;;3.30;;
68803;SDS011;55787;52.678;13.314;2023-07-31T05:25:25;10.05;;;3.08;;
68803;SDS011;55787;52.678;13.314;2023-07-31T05:27:52;8.20;;;2.73;;
68803;SDS011;55787;52.678;13.314;2023-07-31T05:30:19;8.25;;;2.60;;
68803;SDS011;55787;52.678;13.314;2023-07-31T05:32:46;9.05;;;3.05;;
68803;SDS011;55787;52.678;13.314;2023-07-31T05:35:12;8.65;;;2.65;;
68803;SDS011;55787;52.678;13.314;2023-07-31T05:37:39;9.07;;;2.92;;
68803;SDS011;55787;52.678;13.314;2023-07-31T05:40:06;8.17;;;2.53;;
68803;SDS011;55787;52.678;13.314;2023-07-31T05:42:33;9.68;;;2.90;;
68803;SDS011;55787;52.678;13.314;2023-07-31T05:45:01;9.23;;;2.60;;
68803;SDS011;55787;52.678;13.314;2023-07-31T05:47:27;10.68;;;2.85;;
68803;SDS011;55787;52.678;13.314;2023-07-31T05:49:54;9.48;;;3.08;;
68803;SDS011;55787;52.678;13.314;2023-07-31T05:52:21;9.10;;;2.20;;
68803;SDS011;55787;52.678;13.314;2023-07-31T05:54:47;8.90;;;2.80;;
68803;SDS011;55787;52.678;13.314;2023-07-31T05:57:14;8.50;;;2.90;;
68803;SDS011;55787;52.678;13.314;2023-07-31T05:59:41;9.68;;;2.92;;
68803;SDS011;55787;52.678;13.314;2023-07-31T06:02:07;8.27;;;2.95;;
68803;SDS011;55787;52.678;13.314;2023-07-31T06:04:34;8.80;;;2.90;;
68803;SDS011;55787;52.678;13.314;2023-07-31T06:07:01;9.13;;;2.70;;
68803;SDS011;55787;52.678;13.314;2023-07-31T06:09:28;8.48;;;2.60;;
68803;SDS011;55787;52.678;13.314;2023-07-31T06:11:54;10.52;;;2.97;;
68803;SDS011;55787;52.678;13.314;2023-07-31T06:14:21;9.98;;;2.95;;
68803;SDS011;55787;52.678;13.314;2023-07-31T06:16:48;9.20;;;2.97;;
68803;SDS011;55787;52.678;13.314;2023-07-31T06:19:14;9.88;;;3.20;;
68803;SDS011;55787;52.678;13.314;2023-07-31T06:21:41;9.50;;;2.88;;
68803;SDS011;55787;52.678;13.314;2023-07-31T06:24:10;7.80;;;2.67;;
68803;SDS011;55787;52.678;13.314;2023-07-31T06:26:38;10.63;;;2.33;;
68803;SDS011;55787;52.678;13.314;2023-07-31T06:29:05;11.60;;;2.67;;
68803;SDS011;55787;52.678;13.314;2023-07-31T06:31:32;8.82;;;2.17;;
68803;SDS011;55787;52.678;13.314;2023-07-31T06:33:58;7.65;;;1.23;;
68803;SDS011;55787;52.678;13.314;2023-07-31T06:36:25;8.98;;;2.40;;
68803;SDS011;55787;52.678;13.314;2023-07-31T06:38:52;8.10;;;2.60;;
68803;SDS011;55787;52.678;13.314;2023-07-31T06:41:18;9.40;;;2.07;;
68803;SDS011;55787;52.678;13.314;2023-07-31T06:43:45;8.50;;;2.10;;
68803;SDS011;55787;52.678;13.314;2023-07-31T06:46:12;7.55;;;2.00;;
68803;SDS011;55787;52.678;13.314;2023-07-31T06:48:39;8.25;;;2.08;;
68803;SDS011;55787;52.678;13.314;2023-07-31T06:51:05;6.25;;;1.85;;
68803;SDS011;55787;52.678;13.314;2023-07-31T06:53:32;7.60;;;1.50;;
68803;SDS011;55787;52.678;13.314;2023-07-31T06:55:59;7.72;;;2.10;;
68803;SDS011;55787;52.678;13.314;2023-07-31T06:58:25;7.43;;;2.00;;
68803;SDS011;55787;52.678;13.314;2023-07-31T07:00:52;8.82;;;1.70;;
68803;SDS011;55787;52.678;13.314;2023-07-31T07:03:19;7.60;;;1.75;;
68803;SDS011;55787;52.678;13.314;2023-07-31T07:05:47;8.40;;;1.73;;
68803;SDS011;55787;52.678;13.314;2023-07-31T07:08:15;8.07;;;2.13;;
68803;SDS011;55787;52.678;13.314;2023-07-31T07:10:41;6.72;;;1.73;;
68803;SDS011;55787;52.678;13.314;2023-07-31T07:13:08;6.35;;;1.48;;
68803;SDS011;55787;52.678;13.314;2023-07-31T07:15:35;7.00;;;1.80;;
68803;SDS011;55787;52.678;13.314;2023-07-31T07:18:01;6.07;;;1.40;;
68803;SDS011;55787;52.678;13.314;2023-07-31T07:20:29;6.78;;;1.85;;
68803;SDS011;55787;52.678;13.314;2023-07-31T07:22:56;6.90;;;1.55;;
68803;SDS011;55787;52.678;13.314;2023-07-31T07:25:23;7.45;;;1.23;;
68803;SDS011;55787;52.678;13.314;2023-07-31T07:27:50;7.65;;;1.73;;
68803;SDS011;55787;52.678;13.314;2023-07-31T07:30:16;5.60;;;1.37;;
68803;SDS011;55787;52.678;13.314;2023-07-31T07:32:44;7.13;;;1.70;;
68803;SDS011;55787;52.678;13.314;2023-07-31T07:35:11;6.45;;;1.60;;
68803;SDS011;55787;52.678;13.314;2023-07-31T07:37:39;5.72;;;1.40;;
68803;SDS011;55787;52.678;13.314;2023-07-31T07:40:06;8.32;;;1.50;;
68803;SDS011;55787;52.678;13.314;2023-07-31T07:42:33;7.80;;;1.60;;
68803;SDS011;55787;52.678;13.314;2023-07-31T07:45:00;8.00;;;1.88;;
68803;SDS011;55787;52.678;13.314;2023-07-31T07:47:26;6.82;;;1.63;;
68803;SDS011;55787;52.678;13.314;2023-07-31T07:49:54;5.65;;;1.20;;
68803;SDS011;55787;52.678;13.314;2023-07-31T07:52:21;5.82;;;1.20;;
68803;SDS011;55787;52.678;13.314;2023-07-31T07:54:48;7.30;;;1.53;;
68803;SDS011;55787;52.678;13.314;2023-07-31T07:57:14;6.97;;;1.67;;
68803;SDS011;55787;52.678;13.314;2023-07-31T07:59:41;5.95;;;1.40;;
68803;SDS011;55787;52.678;13.314;2023-07-31T08:02:08;7.20;;;1.20;;
68803;SDS011;55787;52.678;13.314;2023-07-31T08:04:35;8.60;;;1.23;;
68803;SDS011;55787;52.678;13.314;2023-07-31T08:07:01;5.33;;;1.00;;
68803;SDS011;55787;52.678;13.314;2023-07-31T08:09:28;5.22;;;1.10;;
68803;SDS011;55787;52.678;13.314;2023-07-31T08:11:55;8.13;;;1.50;;
68803;SDS011;55787;52.678;13.314;2023-07-31T08:14:24;7.03;;;1.10;;
68803;SDS011;55787;52.678;13.314;2023-07-31T08:16:50;5.78;;;1.48;;
68803;SDS011;55787;52.678;13.314;2023-07-31T08:19:17;6.70;;;1.40;;
68803;SDS011;55787;52.678;13.314;2023-07-31T08:21:44;7.05;;;1.80;;
68803;SDS011;55787;52.678;13.314;2023-07-31T08:24:11;4.93;;;0.88;;
68803;SDS011;55787;52.678;13.314;2023-07-31T08:26:38;6.35;;;1.80;;
68803;SDS011;55787;52.678;13.314;2023-07-31T08:29:05;5.95;;;1.30;;
68803;SDS011;55787;52.678;13.314;2023-07-31T08:31:32;8.30;;;1.60;;
68803;SDS011;55787;52.678;13.314;2023-07-31T08:33:59;5.22;;;1.10;;
68803;SDS011;55787;52.678;13.314;2023-07-31T08:36:26;6.68;;;1.30;;
68803;SDS011;55787;52.678;13.314;2023-07-31T08:38:56;5.47;;;1.27;;
68803;SDS011;55787;52.678;13.314;2023-07-31T08:41:22;6.05;;;1.40;;
68803;SDS011;55787;52.678;13.314;2023-07-31T08:43:49;7.63;;;1.33;;
68803;SDS011;55787;52.678;13.314;2023-07-31T08:46:17;6.25;;;1.27;;
68803;SDS011;55787;52.678;13.314;2023-07-31T08:48:45;6.43;;;1.30;;
68803;SDS011;55787;52.678;13.314;2023-07-31T08:51:14;5.93;;;1.10;;
68803;SDS011;55787;52.678;13.314;2023-07-31T08:53:41;5.40;;;1.10;;
68803;SDS011;55787;52.678;13.314;2023-07-31T08:56:08;5.33;;;1.00;;
68803;SDS011;55787;52.678;13.314;2023-07-31T08:58:35;6.47;;;1.75;;
68803;SDS011;55787;52.678;13.314;2023-07-31T09:01:04;6.10;;;1.10;;
68803;SDS011;55787;52.678;13.314;2023-07-31T09:03:34;5.95;;;1.20;;
68803;SDS011;55787;52.678;13.314;2023-07-31T09:06:03;6.57;;;1.23;;
68803;SDS011;55787;52.678;13.314;2023-07-31T09:08:32;6.20;;;1.30;;
68803;SDS011;55787;52.678;13.314;2023-07-31T09:11:02;6.53;;;1.30;;
68803;SDS011;55787;52.678;13.314;2023-07-31T09:13:32;6.63;;;1.45;;
68803;SDS011;55787;52.678;13.314;2023-07-31T09:15:59;6.05;;;1.10;;
68803;SDS011;55787;52.678;13.314;2023-07-31T09:18:25;5.78;;;1.10;;
68803;SDS011;55787;52.678;13.314;2023-07-31T09:21:04;5.83;;;1.20;;
68803;SDS011;55787;52.678;13.314;2023-07-31T09:23:42;6.70;;;1.10;;
68803;SDS011;55787;52.678;13.314;2023-07-31T09:26:10;6.00;;;1.20;;
68803;SDS011;55787;52.678;13.314;2023-07-31T09:28:37;5.20;;;1.00;;
68803;SDS011;55787;52.678;13.314;2023-07-31T09:31:04;5.82;;;1.10;;
68803;SDS011;55787;52.678;13.314;2023-07-31T09:33:30;5.90;;;1.10;;
68803;SDS011;55787;52.678;13.314;2023-07-31T09:38:51;6.03;;;1.02;;
68803;SDS011;55787;52.678;13.314;2023-07-31T09:41:18;3.70;;;0.52;;
68803;SDS011;55787;52.678;13.314;2023-07-31T09:43:52;4.28;;;0.60;;
68803;SDS011;55787;52.678;13.314;2023-07-31T09:46:20;4.73;;;0.60;;
68803;SDS011;55787;52.678;13.314;2023-07-31T09:48:48;3.85;;;0.60;;
68803;SDS011;55787;52.678;13.314;2023-07-31T09:51:14;4.80;;;0.85;;
68803;SDS011;55787;52.678;13.314;2023-07-31T09:53:41;5.00;;;0.70;;
68803;SDS011;55787;52.678;13.314;2023-07-31T09:56:16;4.15;;;0.73;;
68803;SDS011;55787;52.678;13.314;2023-07-31T09:58:44;4.13;;;0.50;;
68803;SDS011;55787;52.678;13.314;2023-07-31T10:01:12;4.78;;;0.70;;
68803;SDS011;55787;52.678;13.314;2023-07-31T10:03:40;4.90;;;0.75;;
68803;SDS011;55787;52.678;13.314;2023-07-31T10:06:08;5.28;;;0.90;;
68803;SDS011;55787;52.678;13.314;2023-07-31T10:08:36;4.40;;;0.70;;
68803;SDS011;55787;52.678;13.314;2023-07-31T10:11:03;4.90;;;0.80;;
68803;SDS011;55787;52.678;13.314;2023-07-31T10:13:30;4.82;;;0.90;;
68803;SDS011;55787;52.678;13.314;2023-07-31T10:15:59;4.82;;;0.73;;
68803;SDS011;55787;52.678;13.314;2023-07-31T10:18:27;4.72;;;0.80;;
68803;SDS011;55787;52.678;13.314;2023-07-31T10:20:55;5.13;;;0.90;;
68803;SDS011;55787;52.678;13.314;2023-07-31T10:23:23;5.03;;;0.60;;
68803;SDS011;55787;52.678;13.314;2023-07-31T10:25:52;5.50;;;0.80;;
68803;SDS011;55787;52.678;13.314;2023-07-31T10:28:20;5.65;;;1.10;;
68803;SDS011;55787;52.678;13.314;2023-07-31T10:30:47;5.00;;;0.88;;
68803;SDS011;55787;52.678;13.314;2023-07-31T10:33:15;4.80;;;0.70;;
68803;SDS011;55787;52.678;13.314;2023-07-31T10:35:43;5.83;;;1.10;;
68803;SDS011;55787;52.678;13.314;2023-07-31T10:38:10;5.78;;;1.20;;
68803;SDS011;55787;52.678;13.314;2023-07-31T10:40:38;7.03;;;0.82;;
68803;SDS011;55787;52.678;13.314;2023-07-31T10:43:05;6.40;;;1.23;;
68803;SDS011;55787;52.678;13.314;2023-07-31T10:45:38;5.32;;;1.00;;
68803;SDS011;55787;52.678;13.314;2023-07-31T10:48:07;5.87;;;1.20;;
68803;SDS011;55787;52.678;13.314;2023-07-31T10:50:52;6.97;;;1.60;;
68803;SDS011;55787;52.678;13.314;2023-07-31T10:53:25;6.85;;;1.48;;
68803;SDS011;55787;52.678;13.314;2023-07-31T10:55:58;5.75;;;1.40;;
68803;SDS011;55787;52.678;13.314;2023-07-31T10:58:25;8.13;;;1.60;;
68803;SDS011;55787;52.678;13.314;2023-07-31T11:00:55;7.90;;;1.53;;
68803;SDS011;55787;52.678;13.314;2023-07-31T11:03:27;6.10;;;1.50;;
68803;SDS011;55787;52.678;13.314;2023-07-31T11:06:18;6.90;;;2.20;;
68803;SDS011;55787;52.678;13.314;2023-07-31T11:08:49;6.05;;;1.60;;
68803;SDS011;55787;52.678;13.314;2023-07-31T11:11:17;5.80;;;1.30;;
68803;SDS011;55787;52.678;13.314;2023-07-31T11:13:49;7.00;;;1.80;;
68803;SDS011;55787;52.678;13.314;2023-07-31T11:16:17;6.43;;;1.65;;
68803;SDS011;55787;52.678;13.314;2023-07-31T11:18:49;7.32;;;1.70;;
68803;SDS011;55787;52.678;13.314;2023-07-31T11:21:19;6.30;;;1.70;;
68803;SDS011;55787;52.678;13.314;2023-07-31T11:23:51;6.72;;;1.77;;
68803;SDS011;55787;52.678;13.314;2023-07-31T11:26:19;8.37;;;2.00;;
68803;SDS011;55787;52.678;13.314;2023-07-31T11:28:47;7.18;;;1.80;;
68803;SDS011;55787;52.678;13.314;2023-07-31T11:31:14;7.57;;;1.63;;
68803;SDS011;55787;52.678;13.314;2023-07-31T11:33:41;5.95;;;1.73;;
68803;SDS011;55787;52.678;13.314;2023-07-31T11:36:14;7.18;;;1.90;;
68803;SDS011;55787;52.678;13.314;2023-07-31T11:38:44;7.43;;;2.10;;
68803;SDS011;55787;52.678;13.314;2023-07-31T11:41:13;8.68;;;2.17;;
68803;SDS011;55787;52.678;13.314;2023-07-31T11:43:40;7.35;;;1.80;;
68803;SDS011;55787;52.678;13.314;2023-07-31T11:46:07;7.70;;;1.90;;
68803;SDS011;55787;52.678;13.314;2023-07-31T11:48:34;7.10;;;1.77;;
68803;SDS011;55787;52.678;13.314;2023-07-31T11:51:03;7.23;;;1.90;;
68803;SDS011;55787;52.678;13.314;2023-07-31T11:53:45;7.50;;;1.90;;
68803;SDS011;55787;52.678;13.314;2023-07-31T11:56:16;8.68;;;1.90;;
68803;SDS011;55787;52.678;13.314;2023-07-31T11:58:55;8.68;;;1.95;;
68803;SDS011;55787;52.678;13.314;2023-07-31T12:01:24;7.80;;;2.10;;
68803;SDS011;55787;52.678;13.314;2023-07-31T12:03:54;7.83;;;1.67;;
68803;SDS011;55787;52.678;13.314;2023-07-31T12:06:21;7.30;;;1.80;;
68803;SDS011;55787;52.678;13.314;2023-07-31T12:08:48;9.57;;;2.00;;
68803;SDS011;55787;52.678;13.314;2023-07-31T12:11:15;7.35;;;1.88;;
68803;SDS011;55787;52.678;13.314;2023-07-31T12:13:44;6.57;;;1.48;;
68803;SDS011;55787;52.678;13.314;2023-07-31T12:16:10;7.03;;;1.73;;
68803;SDS011;55787;52.678;13.314;2023-07-31T12:18:37;11.00;;;2.10;;
68803;SDS011;55787;52.678;13.314;2023-07-31T12:21:05;7.93;;;1.80;;
68803;SDS011;55787;52.678;13.314;2023-07-31T12:23:35;9.48;;;1.90;;
68803;SDS011;55787;52.678;13.314;2023-07-31T12:28:37;7.60;;;1.60;;
68803;SDS011;55787;52.678;13.314;2023-07-31T12:31:05;7.20;;;1.42;;
68803;SDS011;55787;52.678;13.314;2023-07-31T12:33:33;6.38;;;1.70;;
68803;SDS011;55787;52.678;13.314;2023-07-31T12:36:02;7.63;;;1.67;;
68803;SDS011;55787;52.678;13.314;2023-07-31T12:38:30;6.07;;;1.55;;
68803;SDS011;55787;52.678;13.314;2023-07-31T12:40:57;8.53;;;1.70;;
68803;SDS011;55787;52.678;13.314;2023-07-31T12:43:23;6.72;;;1.50;;
68803;SDS011;55787;52.678;13.314;2023-07-31T12:45:50;6.22;;;1.40;;
68803;SDS011;55787;52.678;13.314;2023-07-31T12:48:17;8.25;;;1.95;;
68803;SDS011;55787;52.678;13.314;2023-07-31T12:50:44;7.30;;;1.77;;
68803;SDS011;55787;52.678;13.314;2023-07-31T12:53:10;7.67;;;1.87;;
68803;SDS011;55787;52.678;13.314;2023-07-31T12:55:37;6.88;;;1.60;;
68803;SDS011;55787;52.678;13.314;2023-07-31T12:58:03;7.28;;;2.00;;
68803;SDS011;55787;52.678;13.314;2023-07-31T13:00:30;9.75;;;2.05;;
68803;SDS011;55787;52.678;13.314;2023-07-31T13:02:57;7.07;;;1.70;;
68803;SDS011;55787;52.678;13.314;2023-07-31T13:05:24;7.40;;;1.90;;
68803;SDS011;55787;52.678;13.314;2023-07-31T13:07:50;6.82;;;1.83;;
68803;SDS011;55787;52.678;13.314;2023-07-31T13:10:19;6.32;;;1.60;;
68803;SDS011;55787;52.678;13.314;2023-07-31T13:12:46;7.07;;;1.70;;
68803;SDS011;55787;52.678;13.314;2023-07-31T13:15:13;6.97;;;1.70;;
68803;SDS011;55787;52.678;13.314;2023-07-31T13:17:40;7.20;;;1.63;;
68803;SDS011;55787;52.678;13.314;2023-07-31T13:20:07;8.65;;;1.90;;
68803;SDS011;55787;52.678;13.314;2023-07-31T13:22:34;6.38;;;1.65;;
68803;SDS011;55787;52.678;13.314;2023-07-31T13:25:01;7.57;;;1.73;;
68803;SDS011;55787;52.678;13.314;2023-07-31T13:27:28;8.05;;;1.88;;
68803;SDS011;55787;52.678;13.314;2023-07-31T13:29:54;9.20;;;1.63;;
68803;SDS011;55787;52.678;13.314;2023-07-31T13:32:21;6.25;;;1.55;;
68803;SDS011;55787;52.678;13.314;2023-07-31T13:34:48;7.47;;;1.75;;
68803;SDS011;55787;52.678;13.314;2023-07-31T13:37:15;6.70;;;1.60;;
68803;SDS011;55787;52.678;13.314;2023-07-31T13:39:42;7.40;;;1.80;;
68803;SDS011;55787;52.678;13.314;2023-07-31T13:42:09;6.33;;;1.60;;
68803;SDS011;55787;52.678;13.314;2023-07-31T13:44:38;7.78;;;1.40;;
68803;SDS011;55787;52.678;13.314;2023-07-31T13:47:06;6.93;;;1.40;;
68803;SDS011;55787;52.678;13.314;2023-07-31T13:49:33;6.57;;;1.20;;
68803;SDS011;55787;52.678;13.314;2023-07-31T13:52:01;5.95;;;1.33;;
68803;SDS011;55787;52.678;13.314;2023-07-31T13:54:28;5.97;;;1.30;;
68803;SDS011;55787;52.678;13.314;2023-07-31T14:00:43;7.00;;;1.58;;
68803;SDS011;55787;52.678;13.314;2023-07-31T14:03:10;6.55;;;1.50;;
68803;SDS011;55787;52.678;13.314;2023-07-31T14:05:37;6.68;;;1.48;;
68803;SDS011;55787;52.678;13.314;2023-07-31T14:08:04;7.67;;;1.40;;
68803;SDS011;55787;52.678;13.314;2023-07-31T14:10:31;8.98;;;1.70;;
68803;SDS011;55787;52.678;13.314;2023-07-31T14:12:57;7.60;;;1.50;;
68803;SDS011;55787;52.678;13.314;2023-07-31T14:15:24;5.53;;;1.20;;
68803;SDS011;55787;52.678;13.314;2023-07-31T14:17:50;5.93;;;1.33;;
68803;SDS011;55787;52.678;13.314;2023-07-31T14:20:17;7.07;;;1.30;;
68803;SDS011;55787;52.678;13.314;2023-07-31T14:26:32;6.88;;;1.38;;
68803;SDS011;55787;52.678;13.314;2023-07-31T14:28:59;6.60;;;1.50;;
68803;SDS011;55787;52.678;13.314;2023-07-31T14:31:26;7.28;;;1.75;;
68803;SDS011;55787;52.678;13.314;2023-07-31T14:33:53;6.10;;;1.40;;
68803;SDS011;55787;52.678;13.314;2023-07-31T14:36:23;7.95;;;1.50;;
68803;SDS011;55787;52.678;13.314;2023-07-31T14:38:49;7.97;;;1.65;;
68803;SDS011;55787;52.678;13.314;2023-07-31T14:41:16;6.05;;;1.35;;
68803;SDS011;55787;52.678;13.314;2023-07-31T14:43:43;6.38;;;1.30;;
68803;SDS011;55787;52.678;13.314;2023-07-31T14:46:09;6.63;;;1.50;;
68803;SDS011;55787;52.678;13.314;2023-07-31T14:48:36;6.30;;;1.60;;
68803;SDS011;55787;52.678;13.314;2023-07-31T14:51:03;7.85;;;1.50;;
68803;SDS011;55787;52.678;13.314;2023-07-31T14:53:29;6.97;;;1.63;;